PAGINA EN CONSTRUCCIÓN

DISCULPEN POSIBLES FALLOS



Daganzo more information Daganzo


Meteosat more information blitzortung!


Radar lluvias  rain snow radar


Visita nuestra red de sitios de meteo:

Documentation for the template used

MeteoibericaRed estaciones Meteorologicas



Sin Advertencias climatologicas .En este momento tenemos Nivel Verde.    No hay Alarmas

Informes METAR proximidad

   
LEMD - Madrid/Barajas
Actualización: 22-07-2018 15:30
Nubes dispersas  
Nubes dispersas  
   Viento: NE 3.7 km/h
Viento: NE 3.7 km/h
Temperatura: 32°C
Punto de rocío: 10°C
Humedad: 26%
Baromètro: 1014 hPa
Nublado: Nubes dispersas
Visibilidad: More than 10 km
detalles de la nube: Nubes dispersas 8000 ft
LEMD 221530Z 05002KT 9999 FEW080 32/10 Q1014 NOSIG
LEBL - Barcelona/El Prat
Actualización: 22-07-2018 15:30
Nubes dispersas  
Nubes dispersas  
   Viento: SSW 18.5 km/h
Viento: SSW 18.5 km/h
Temperatura: 26°C
Punto de rocío: 19°C
Humedad: 65%
Baromètro: 1014 hPa
Nublado: Nubes dispersas
Visibilidad: More than 10 km
detalles de la nube: Nubes dispersas 2000 ft
LEBL 221530Z 20010KT 170V240 9999 FEW020 26/19 Q1014 NOSIG
LEVC - Valencia
Actualización: 22-07-2018 15:30
Nubes dispersas  
Nubes dispersas  
   Viento: E 14.8 km/h
Viento: E 14.8 km/h
Temperatura: 28°C
Índice de calor: 28°C
Punto de rocío: 15°C
Humedad: 45%
Baromètro: 1014 hPa
Nublado: Nubes dispersas
Visibilidad: More than 10 km
detalles de la nube: Nubes dispersas 4000 ft
LEVC 221530Z 10008KT 070V160 9999 FEW040 28/15 Q1014 NOSIG
LETO - Madrid/Torrejon
Actualización: 22-07-2018 15:00
Parcialmente Nublado  
Parcialmente Nublado  
   Viento: WSW 14.8 km/h
Viento: WSW 14.8 km/h
Temperatura: 32°C
Punto de rocío: 8°C
Humedad: 22%
Baromètro: 1014 hPa
Nublado: Parcialmente Nublado
Visibilidad: More than 10 km
detalles de la nube: Parcialmente Nublado 5000 ft
LETO 221500Z 24008KT 200V280 9999 SCT050 32/08 Q1014 NOSIG
LEVS - Madrid/Cuatro Vientos
Actualización: 22-07-2018 16:00
Despejado  
Despejado  
   Viento: West 9.3 km/h
Viento: West 9.3 km/h
Temperatura: 30°C
Punto de rocío: 10°C
Humedad: 29%
Baromètro: 1014 hPa
Visibilidad: More than 10 km
detalles de la nube: Despejado
LEVS 221600Z 26005KT 200V330 CAVOK 30/10 Q1014
LEGT - Madrid/Getafe
Actualización: 22-07-2018 16:00
Nubes dispersas  
Nubes dispersas  
   Viento: S 13 km/h<br />Gust to 13 km/h
Viento: S 13 km/h
Gust to 13 km/h
Nublado: Nubes dispersas
Visibilidad: More than 10 km
detalles de la nube: Nubes dispersas 4500 ft
LEGT 221600Z 18007G19KT 110V220 9999 FEW045 3
LEVD - Valladolid
Actualización: 22-07-2018 16:00
Despejado  
Despejado  
   Viento: ESE 11.1 km/h
Viento: ESE 11.1 km/h
Temperatura: 26°C
Punto de rocío: 7°C
Humedad: 30%
Baromètro: 1017 hPa
Visibilidad: More than 10 km
detalles de la nube: Despejado
LEVD 221600Z 11006KT 050V170 CAVOK 26/07 Q1017
LEZG - Zaragoza
Actualización: 22-07-2018 16:00
Despejado  
Despejado  
   Viento: NW 16.7 km/h
Viento: NW 16.7 km/h
Temperatura: 30°C
Punto de rocío: 10°C
Humedad: 29%
Baromètro: 1014 hPa
Visibilidad: More than 10 km
detalles de la nube: Despejado
LEZG 221600Z 31009KT 270V010 CAVOK 30/10 Q1014
LEVT - Vitoria
Actualización: 22-07-2018 16:00
Parcialmente Nublado  
Parcialmente Nublado  
   Viento: NE 22.2 km/h
Viento: NE 22.2 km/h
Temperatura: 22°C
Punto de rocío: 14°C
Humedad: 61%
Baromètro: 1018 hPa
Nublado: Parcialmente Nublado
Visibilidad: More than 10 km
detalles de la nube: Parcialmente Nublado 3000 ft
LEVT 221600Z 04012KT 360V070 9999 SCT030 22/14 Q1018
LELN - Leon/Virgen del Camino
Actualización: 22-07-2018 16:00
Nubes dispersas  
Nubes dispersas  
   Viento: SE 5.6 km/h
Viento: SE 5.6 km/h
Temperatura: 24°C
Punto de rocío: 7°C
Humedad: 34%
Baromètro: 1018 hPa
Nublado: Nubes dispersas
Visibilidad: More than 10 km
detalles de la nube: Nubes dispersas 4500 ft
LELN 221600Z 13003KT 060V200 9999 FEW045 24/07 Q1018
LEPP - Pamplona/Noain
Actualización: 22-07-2018 16:00
Nubes dispersas  
Nubes dispersas  
   Viento: NNW 27.8 km/h
Viento: NNW 27.8 km/h
Temperatura: 24°C
Punto de rocío: 13°C
Humedad: 50%
Baromètro: 1017 hPa
Nublado: Nubes dispersas
Visibilidad: More than 10 km
detalles de la nube: Nubes dispersas 3000 ft
LEPP 221600Z 34015KT 300V360 9999 FEW030 24/13 Q1017
LEBB - Bilbao/Sondica
Actualización: 22-07-2018 16:00
Parcialmente nublado  
Parcialmente nublado  
   Viento: NW 9.3 km/h
Viento: NW 9.3 km/h
Temperatura: 24°C
Punto de rocío: 18°C
Humedad: 69%
Baromètro: 1018 hPa
Nublado: Parcialmente nublado
Visibilidad: More than 10 km
detalles de la nube: Nubes dispersas 2500 ft,
Parcialmente nublado 6900 ft
LEBB 221600Z 32005KT 250V020 9999 FEW025 BKN069 24/18 Q1018 NOSIG

Guión original por  Saratoga-weather.org Adaptado para la plantilla por  Weerstation Leuven

Usted encontrará nuestra información del tiempo también en:

WeatherCloud

Weather Underground

Iberian Peninsula Weather Network

AWEKAS

Citizen Weather Observer Program (CWOP)